Terminal Aerodrome Forecast
Issued by NWS

Home | Current Version | Previous Version | Text Only | Print | Product List | Glossary On
Versions: 1 2 3 4 5 6 7 8 9 10 11 12 13 14 15
000
FTAK31 PANC 251740
TAFAGK
TAF
PAGK 251740Z 2518/2618 16010KT P6SM FEW120
     FM252100 16012G18KT P6SM SCT120
     FM260200 15007KT P6SM BKN120=

USA.gov is the U.S. government's official web portal to all federal, state and local government web resources and services.